Terminal Aerodrome Forecast
Issued by NWS Tulsa, OK

Home | Current Version | Previous Version | Text Only | Print | Product List | Glossary On
Versions: 1 2 3 4 5 6 7 8 9 10 11 12 13 14 15 16 17 18
032
FTUS44 KTSA 230520
TAFFSM
TAF
KFSM 230520Z 2306/2406 06005KT P6SM SCT250
     FM230900 08003KT 4SM BR SCT250
     FM231400 10009KT P6SM SCT250
     FM232000 17012G20KT P6SM BKN250
     FM240000 15007KT P6SM SCT150=

USA.gov is the U.S. government's official web portal to all federal, state and local government web resources and services.